Latest Weather Observations for Noonamah

IDD60801

Issued at 7:31 pm CST Sunday 25 January 2015 (issued every 30 minutes, with the page automatically refreshed every 10 minutes)

About weather observations | Map of weather stations | Latest weather observations for NT | Other Formats
Station Details ID: 014314 Name: NOONAMAH AIRSTRIP Lat: -12.61 Lon: 131.05 Height: 17.5 m
Data from the previous 72 hours. | See also: Recent months for locations in Northern Territory
Date/Time
CST
Temp
°C
App
Temp
°C
Dew
Point
Rel
Hum
%
Delta-T
°C
Wind Press
QNH
hPa
Press
MSL
hPa
Rain
since 9 am
mm
Dir
 
Spd
km/h
Gust
km/h
Spd
kts
Gust
kts
25/07:30pm 25.5 30.4 24.6 95 0.6 NW 7 11 4 6 1007.7 1007.5 30.8
25/07:00pm 25.7 30.9 24.8 95 0.6 NNW 6 7 3 4 1007.4 1007.2 30.8
25/06:30pm 25.8 31.3 24.6 93 0.8 W 4 7 2 4 1006.7 1006.5 30.8
25/06:00pm 25.7 31.3 24.8 95 0.6 WNW 4 7 2 4 1007.1 1006.9 30.8
25/05:30pm 25.9 31.2 24.9 94 0.7 WNW 6 9 3 5 1007.1 1006.9 30.4
25/05:00pm 25.6 30.9 24.9 96 0.5 ENE 6 7 3 4 1007.1 1006.9 30.4
25/04:30pm 25.6 30.4 24.4 93 0.8 WNW 7 13 4 7 1006.8 1006.6 30.2
25/04:00pm 25.4 29.8 24.4 94 0.7 SE 9 17 5 9 1007.0 1006.8 30.0
25/03:30pm 25.3 27.6 24.1 93 0.8 SE 19 28 10 15 1007.2 1007.0 16.2
25/03:00pm 29.5 31.4 22.7 67 4.6 SSW 17 30 9 16 1006.8 1006.6 0.0
25/02:30pm 32.3 35.3 24.6 64 5.4 WNW 17 28 9 15 1006.9 1006.7 0.0
25/02:00pm 32.4 35.3 24.4 62 5.6 W 17 30 9 16 1007.1 1006.9 0.0
25/01:30pm 32.3 35.3 24.6 64 5.4 WNW 17 30 9 16 1007.5 1007.3 0.0
25/01:00pm 31.9 35.7 24.7 65 5.1 WNW 13 22 7 12 1008.1 1007.9 0.0
25/12:30pm 31.9 36.4 25.2 67 4.7 WNW 11 17 6 9 1008.3 1008.1 0.0
25/12:00pm 31.6 36.7 25.5 70 4.3 WNW 9 15 5 8 1008.4 1008.2 0.0
25/11:30am 31.0 36.8 25.8 74 3.7 NW 6 11 3 6 1009.0 1008.8 0.0
25/11:00am 28.7 33.8 24.9 80 2.7 NW 7 15 4 8 1009.7 1009.5 0.0
25/10:30am 28.1 31.7 23.7 77 3.0 NNW 11 17 6 9 1010.0 1009.8 0.0
25/10:00am 30.2 35.4 25.7 77 3.2 WNW 9 17 5 9 1010.0 1009.8 0.0
25/09:30am 29.8 35.6 25.8 79 2.8 W 6 11 3 6 1009.8 1009.6 0.0
25/09:00am 29.1 35.9 26.7 87 1.7 N 4 9 2 5 1010.0 1009.8 0.2
25/08:30am 27.7 34.5 26.1 91 1.1 NE 2 4 1 2 1009.4 1009.2 0.2
25/08:00am 27.2 33.4 25.8 92 1.0 NE 4 7 2 4 1009.0 1008.8 0.2
25/07:30am 25.4 31.8 24.9 97 0.3 CALM 0 0 0 0 1008.5 1008.3 0.2
25/07:00am 25.1 31.1 24.8 98 0.2 ESE 2 4 1 2 1008.1 1007.9 0.2
25/06:30am 25.0 30.9 24.7 98 0.2 E 2 2 1 1 1007.7 1007.5 0.2
25/06:00am 25.1 31.4 24.8 98 0.2 CALM 0 6 0 3 1007.3 1007.1 0.2
25/05:30am 25.1 30.7 24.8 98 0.2 E 4 6 2 3 1007.6 1007.4 0.2
25/05:00am 25.1 30.7 24.8 98 0.2 E 4 4 2 2 1007.7 1007.5 0.2
25/04:30am 25.0 30.5 24.7 98 0.2 NE 4 6 2 3 1007.5 1007.3 0.2
25/04:00am 25.1 31.3 24.6 97 0.3 CALM 0 0 0 0 1007.1 1006.9 0.2
25/03:30am 25.2 31.1 24.7 97 0.3 NW 2 4 1 2 1007.0 1006.8 0.2
25/03:00am 25.4 31.8 24.9 97 0.3 CALM 0 0 0 0 1007.2 1007.0 0.2
25/02:30am 25.4 31.7 24.7 96 0.5 CALM 0 2 0 1 1007.5 1007.3 0.2
25/02:00am 25.4 30.9 24.7 96 0.5 ESE 4 6 2 3 1007.9 1007.7 0.2
25/01:30am 25.3 31.5 24.6 96 0.5 CALM 0 0 0 0 1007.7 1007.5 0.2
25/01:00am 25.4 30.9 24.7 96 0.5 NE 4 4 2 2 1007.8 1007.6 0.2
25/12:30am 25.4 31.2 24.5 95 0.6 NW 2 4 1 2 1008.1 1007.9 0.2
25/12:00am 25.4 31.2 24.5 95 0.6 NNW 2 4 1 2 1008.6 1008.4 0.2
 
Date/Time
CST
Temp
°C
App
Temp
°C
Dew
Point
Rel
Hum
%
Delta-T
°C
Wind Press
QNH
hPa
Press
MSL
hPa
Rain
since 9 am
mm
Dir
 
Spd
km/h
Gust
km/h
Spd
kts
Gust
kts
24/11:30pm 25.4 31.1 24.4 94 0.7 NNE 2 2 1 1 1009.1 1008.9 0.2
24/11:00pm 25.6 31.1 24.6 94 0.7 ENE 4 6 2 3 1009.2 1009.0 0.2
24/10:30pm 25.7 32.0 24.7 94 0.7 CALM 0 0 0 0 1008.9 1008.7 0.2
24/10:00pm 25.6 31.7 24.4 93 0.8 CALM 0 0 0 0 1008.9 1008.7 0.2
24/09:30pm 26.1 32.1 24.3 90 1.2 CALM 0 0 0 0 1008.1 1007.9 0.2
24/09:00pm 26.4 32.3 24.1 87 1.6 CALM 0 2 0 1 1008.0 1007.8 0.2
24/08:30pm 26.5 31.6 24.0 86 1.7 NNW 4 6 2 3 1007.7 1007.5 0.2
24/08:00pm 26.7 31.6 23.6 83 2.1 NW 4 7 2 4 1007.5 1007.3 0.2
24/07:30pm 26.8 31.6 23.5 82 2.3 NNW 4 7 2 4 1007.1 1006.9 0.2
24/07:00pm 26.9 31.5 23.2 80 2.5 SW 4 7 2 4 1006.9 1006.7 0.2
24/06:30pm 27.3 31.2 22.9 77 3.0 W 7 9 4 5 1006.2 1006.0 0.2
24/06:00pm 27.3 31.3 22.7 76 3.1 WNW 6 9 3 5 1005.6 1005.4 0.2
24/05:30pm 27.1 30.2 22.1 74 3.4 WNW 9 13 5 7 1005.5 1005.3 0.2
24/05:00pm 27.0 29.9 21.7 73 3.5 W 9 15 5 8 1005.4 1005.2 0.2
24/04:30pm 26.9 30.4 21.9 74 3.4 NW 6 9 3 5 1005.6 1005.4 0.2
24/04:00pm 25.9 28.3 21.6 77 2.9 WSW 11 20 6 11 1005.6 1005.4 0.2
24/03:30pm 26.9 30.8 22.9 79 2.7 WNW 7 9 4 5 1005.5 1005.3 0.2
24/03:00pm 27.4 30.9 23.6 80 2.6 WNW 11 19 6 10 1005.4 1005.2 0.2
24/02:30pm 27.8 32.7 23.6 78 2.9 SW 4 7 2 4 1006.3 1006.1 0.2
24/02:00pm 29.0 32.3 23.9 74 3.5 WNW 13 24 7 13 1005.9 1005.7 0.2
24/01:30pm 29.5 32.0 24.4 74 3.6 WNW 19 32 10 17 1005.6 1005.4 0.2
24/01:00pm 31.4 36.0 26.0 73 3.9 NNW 13 22 7 12 1005.5 1005.3 0.2
24/12:30pm 32.4 37.3 25.2 66 5.1 WNW 9 15 5 8 1005.8 1005.6 0.2
24/12:00pm 32.0 37.1 26.1 71 4.2 NW 11 17 6 9 1006.2 1006.0 0.2
24/11:30am 31.9 37.4 26.2 72 4.1 NNW 9 13 5 7 1006.7 1006.5 0.2
24/11:00am 31.1 36.9 26.6 77 3.2 NW 9 13 5 7 1007.2 1007.0 0.2
24/10:30am 30.8 36.9 26.5 78 3.1 WNW 7 11 4 6 1007.5 1007.3 0.0
24/10:00am 30.5 37.0 27.1 82 2.5 NW 7 11 4 6 1007.7 1007.5 0.0
24/09:30am 29.5 35.9 26.9 86 1.9 WNW 7 9 4 5 1007.4 1007.2 0.0
24/09:00am 29.1 35.8 27.1 89 1.4 WNW 6 9 3 5 1007.3 1007.1 0.6
24/08:30am 28.3 35.6 26.9 92 1.0 NW 2 4 1 2 1007.0 1006.8 0.6
24/08:00am 27.7 35.3 26.8 95 0.6 CALM 0 0 0 0 1006.6 1006.4 0.6
24/07:30am 27.2 33.9 26.5 96 0.5 NNW 4 6 2 3 1006.5 1006.3 0.6
24/07:00am 27.0 33.5 26.3 96 0.5 WSW 4 4 2 2 1005.8 1005.6 0.6
24/06:30am 27.0 33.5 26.3 96 0.5 W 4 6 2 3 1005.5 1005.3 0.6
24/06:00am 27.1 33.7 26.4 96 0.5 W 4 7 2 4 1005.1 1004.9 0.6
24/05:30am 26.8 32.8 26.1 96 0.5 WNW 6 7 3 4 1005.0 1004.8 0.6
24/05:00am 26.9 32.9 26.0 95 0.6 W 6 7 3 4 1004.7 1004.5 0.6
24/04:30am 27.1 33.2 26.2 95 0.6 WNW 6 9 3 5 1004.5 1004.3 0.6
24/04:00am 27.2 33.2 26.3 95 0.6 W 7 13 4 7 1004.3 1004.1 0.6
24/03:30am 27.5 33.2 26.4 94 0.8 W 9 15 5 8 1004.4 1004.2 0.6
24/03:00am 27.5 33.7 26.6 95 0.6 WNW 7 9 4 5 1004.7 1004.5 0.6
24/02:30am 27.4 33.5 26.5 95 0.6 W 7 11 4 6 1005.1 1004.9 0.6
24/02:00am 27.2 33.9 26.5 96 0.5 W 4 6 2 3 1005.4 1005.2 0.6
24/01:30am 27.1 33.7 26.4 96 0.5 W 4 4 2 2 1005.6 1005.4 0.6
24/01:00am 27.2 33.7 26.3 95 0.6 W 4 4 2 2 1006.1 1005.9 0.6
24/12:30am 27.4 33.5 26.5 95 0.6 W 7 11 4 6 1006.4 1006.2 0.6
24/12:00am 27.5 33.9 26.6 95 0.6 W 6 11 3 6 1006.4 1006.2 0.6
 
Date/Time
CST
Temp
°C
App
Temp
°C
Dew
Point
Rel
Hum
%
Delta-T
°C
Wind Press
QNH
hPa
Press
MSL
hPa
Rain
since 9 am
mm
Dir
 
Spd
km/h
Gust
km/h
Spd
kts
Gust
kts
23/11:30pm 27.4 33.7 26.5 95 0.6 W 6 9 3 5 1006.4 1006.2 0.6
23/11:00pm 27.3 33.7 26.6 96 0.5 WSW 6 9 3 5 1005.7 1005.5 0.6
23/10:30pm 26.9 33.5 26.4 97 0.4 WNW 4 6 2 3 1005.4 1005.2 0.6
23/10:00pm 26.7 33.2 26.2 97 0.4 NW 4 6 2 3 1005.3 1005.1 0.6
23/09:30pm 26.4 33.3 25.7 96 0.5 CALM 0 0 0 0 1005.5 1005.3 0.6
23/09:00pm 26.4 33.2 25.5 95 0.6 CALM 0 0 0 0 1005.5 1005.3 0.6
23/08:30pm 26.4 33.2 25.5 95 0.6 CALM 0 2 0 1 1005.6 1005.4 0.6
23/08:00pm 26.2 32.5 25.3 95 0.6 N 2 4 1 2 1005.6 1005.4 0.6
23/07:30pm 26.1 31.9 25.1 94 0.7 N 4 6 2 3 1005.5 1005.3 0.6
23/07:00pm 26.0 32.1 25.0 94 0.7 NNE 2 4 1 2 1005.3 1005.1 0.6
23/06:30pm 26.1 31.9 25.1 94 0.7 NNW 4 4 2 2 1005.0 1004.8 0.6
23/06:00pm 25.9 31.2 24.9 94 0.7 W 6 11 3 6 1004.1 1003.9 0.6
23/05:30pm 25.6 30.1 24.6 94 0.7 NNW 9 13 5 7 1003.8 1003.6 0.6
23/05:00pm 26.0 30.7 25.0 94 0.7 NNW 9 19 5 10 1003.4 1003.2 0.6
23/04:30pm 27.1 32.4 25.9 93 0.9 NW 9 15 5 8 1003.4 1003.2 0.6
23/04:00pm 27.5 33.2 25.9 91 1.1 NNW 7 9 4 5 1003.4 1003.2 0.6
23/03:30pm 28.1 34.4 26.5 91 1.1 N 6 9 3 5 1003.2 1003.0 0.6
23/03:00pm 28.9 35.6 26.5 87 1.7 N 4 6 2 3 1003.7 1003.5 0.6
23/02:30pm 29.1 36.0 26.9 88 1.6 SE 4 7 2 4 1003.0 1002.8 0.6
23/02:00pm 29.5 35.2 25.9 81 2.6 SSE 7 13 4 7 1003.5 1003.3 0.4
23/01:30pm 28.6 33.7 25.6 84 2.1 SW 9 19 5 10 1004.7 1004.5 0.0
23/01:00pm 29.1 34.3 25.7 82 2.4 WSW 9 17 5 9 1004.8 1004.6 0.0
23/12:30pm 28.8 33.3 24.6 78 2.9 W 9 15 5 8 1004.8 1004.6 0.0
23/12:00pm 28.2 32.2 23.8 77 3.0 WSW 9 15 5 8 1005.0 1004.8 0.0
23/11:30am 27.8 30.8 22.7 74 3.5 WSW 11 17 6 9 1005.5 1005.3 0.0
23/11:00am 27.6 30.9 22.5 74 3.5 SW 9 17 5 9 1005.9 1005.7 0.0
23/10:30am 27.0 28.8 22.6 77 3.0 WSW 17 28 9 15 1006.8 1006.6 0.0
23/10:00am 26.6 28.5 22.7 79 2.6 WSW 17 32 9 17 1006.3 1006.1 0.0
23/09:30am 26.6 28.0 22.9 80 2.5 W 20 37 11 20 1006.2 1006.0 0.0
23/09:00am 27.1 28.5 22.9 78 2.9 WNW 20 35 11 19 1005.7 1005.5 0.0
23/08:30am 27.1 30.1 24.7 87 1.7 WNW 17 26 9 14 1006.6 1006.4 0.0
23/08:00am 27.5 29.8 24.1 82 2.3 WNW 19 28 10 15 1006.1 1005.9 0.0
23/07:30am 27.8 30.0 24.8 84 2.1 WNW 22 35 12 19 1005.0 1004.8 0.0
23/07:00am 28.5 31.0 24.7 80 2.7 WNW 20 33 11 18 1005.2 1005.0 0.0
23/06:30am 28.3 32.5 24.7 81 2.5 WNW 11 17 6 9 1004.3 1004.1 0.0
23/06:00am 28.6 32.5 24.8 80 2.7 WNW 13 22 7 12 1003.7 1003.5 0.0
23/05:30am 28.5 32.8 24.9 81 2.5 WNW 11 17 6 9 1004.1 1003.9 0.0
23/05:00am 28.4 33.1 25.0 82 2.4 WNW 9 15 5 8 1003.8 1003.6 0.0
23/04:30am 28.3 32.9 25.3 84 2.1 WNW 11 17 6 9 1004.2 1004.0 0.0
23/04:00am 28.4 33.4 25.4 84 2.1 WNW 9 15 5 8 1004.5 1004.3 0.0
23/03:30am 28.4 33.8 25.4 84 2.1 WNW 7 13 4 7 1004.9 1004.7 0.0
23/03:00am 28.6 34.0 25.4 83 2.3 W 7 11 4 6 1005.2 1005.0 0.0
23/02:30am 28.5 33.4 25.3 83 2.3 WNW 9 15 5 8 1005.2 1005.0 0.0
23/02:00am 28.5 33.4 25.3 83 2.3 WNW 9 17 5 9 1004.7 1004.5 0.0
23/01:30am 28.5 33.4 25.3 83 2.3 WNW 9 15 5 8 1004.7 1004.5 0.0
23/01:00am 28.5 33.9 25.5 84 2.1 WNW 7 13 4 7 1004.9 1004.7 0.0
23/12:30am 28.6 33.3 25.6 84 2.1 WNW 11 20 6 11 1005.3 1005.1 0.0
23/12:00am 28.6 33.5 25.8 85 2.0 NW 11 19 6 10 1005.6 1005.4 0.0
 
Date/Time
CST
Temp
°C
App
Temp
°C
Dew
Point
Rel
Hum
%
Delta-T
°C
Wind Press
QNH
hPa
Press
MSL
hPa
Rain
since 9 am
mm
Dir
 
Spd
km/h
Gust
km/h
Spd
kts
Gust
kts
22/11:30pm 28.7 33.0 25.5 83 2.3 WNW 13 17 7 9 1005.8 1005.6 0.0
22/11:00pm 28.8 33.0 25.4 82 2.4 WNW 13 19 7 10 1005.9 1005.7 0.0
22/10:30pm 29.0 32.5 25.4 81 2.5 WNW 17 32 9 17 1006.0 1005.8 0.0
22/10:00pm 28.9 32.8 25.5 82 2.4 NW 15 24 8 13 1005.8 1005.6 0.0
22/09:30pm 29.0 33.4 25.6 82 2.4 WNW 13 26 7 14 1005.4 1005.2 0.0
22/09:00pm 29.0 33.5 25.8 83 2.3 WNW 13 20 7 11 1005.4 1005.2 0.0
22/08:30pm 29.2 33.2 25.6 81 2.6 WNW 15 26 8 14 1005.2 1005.0 0.0
22/08:00pm 29.1 33.4 25.5 81 2.5 WNW 13 28 7 15 1005.2 1005.0 0.0

Other Formats:

Comma delimited format used in spreadsheet applications
http://www.bom.gov.au/fwo/IDD60801/IDD60801.94105.axf

JavaScript Object Notation format (JSON) in row-major order
http://www.bom.gov.au/fwo/IDD60801/IDD60801.94105.json